createdAt,value
2023-09-01T00:00:06.149Z,1.20
2023-09-01T00:02:33.964Z,1.70
2023-09-01T00:05:07.011Z,1.20
2023-09-01T00:07:34.784Z,0.90
2023-09-01T00:10:02.350Z,1.80
2023-09-01T00:12:29.897Z,1.60
2023-09-01T00:14:58.291Z,1.40
2023-09-01T00:17:25.955Z,1.30
2023-09-01T00:19:53.596Z,1.50
2023-09-01T00:22:21.152Z,0.90
2023-09-01T00:24:48.820Z,1.10
2023-09-01T00:27:16.694Z,1.10
2023-09-01T00:29:44.352Z,1.00
2023-09-01T00:32:12.219Z,1.30
2023-09-01T00:34:40.412Z,1.70
2023-09-01T00:37:07.947Z,1.10
2023-09-01T00:39:35.602Z,1.60
2023-09-01T00:42:03.980Z,0.80
2023-09-01T00:44:31.541Z,1.80
2023-09-01T00:46:59.493Z,2.10
2023-09-01T00:49:27.164Z,1.90
2023-09-01T00:51:54.723Z,2.40
2023-09-01T00:54:22.384Z,2.70
2023-09-01T00:56:50.043Z,1.90
2023-09-01T00:59:17.707Z,2.50
2023-09-01T01:01:46.161Z,2.40
2023-09-01T01:04:13.948Z,0.90
2023-09-01T01:06:54.407Z,1.50
2023-09-01T01:09:46.956Z,1.90
2023-09-01T01:12:14.546Z,1.90
2023-09-01T01:15:02.960Z,2.30
2023-09-01T01:17:30.575Z,1.40
2023-09-01T01:20:15.234Z,2.00
2023-09-01T01:22:50.215Z,1.80
2023-09-01T01:25:17.806Z,2.40
2023-09-01T01:27:45.435Z,2.30
2023-09-01T01:30:16.674Z,1.50
2023-09-01T01:32:45.365Z,1.70
2023-09-01T01:35:21.110Z,1.50
2023-09-01T01:37:48.672Z,1.10
2023-09-01T01:40:16.222Z,1.50
2023-09-01T01:42:45.645Z,1.50
2023-09-01T01:45:13.218Z,1.60
2023-09-01T01:47:40.885Z,1.50
2023-09-01T01:50:09.224Z,1.50
2023-09-01T01:52:37.194Z,1.40
2023-09-01T01:55:08.442Z,1.10
2023-09-01T01:57:38.043Z,0.90
2023-09-01T02:00:12.543Z,2.00
2023-09-01T02:02:44.012Z,1.20
2023-09-01T02:05:11.946Z,1.20
2023-09-01T02:07:39.648Z,1.70
2023-09-01T02:10:07.752Z,1.60
2023-09-01T02:12:36.296Z,1.80
2023-09-01T02:15:10.260Z,1.50
2023-09-01T02:17:38.426Z,2.80
2023-09-01T02:20:17.911Z,1.50
2023-09-01T02:22:46.336Z,0.90
2023-09-01T02:25:14.483Z,1.40
2023-09-01T02:27:42.761Z,1.40
2023-09-01T02:30:11.413Z,1.10
2023-09-01T02:32:39.433Z,1.00
2023-09-01T02:35:07.907Z,1.60
2023-09-01T02:37:35.637Z,1.30
2023-09-01T02:40:12.264Z,1.70
2023-09-01T02:42:40.902Z,2.20
2023-09-01T02:45:10.534Z,1.30
2023-09-01T02:47:38.255Z,1.10
2023-09-01T02:50:06.347Z,2.10
2023-09-01T02:52:34.200Z,1.50
2023-09-01T02:55:02.063Z,1.70
2023-09-01T02:57:29.554Z,1.50
2023-09-01T02:59:57.186Z,1.10
2023-09-01T03:02:25.492Z,2.30
2023-09-01T03:04:58.274Z,1.60
2023-09-01T03:07:28.772Z,1.30
2023-09-01T03:09:56.637Z,2.00
2023-09-01T03:12:24.608Z,1.70
2023-09-01T03:14:52.261Z,2.10
2023-09-01T03:17:20.026Z,2.50
2023-09-01T03:19:48.100Z,1.50
2023-09-01T03:22:15.758Z,2.50
2023-09-01T03:24:43.346Z,2.80
2023-09-01T03:27:11.181Z,2.20
2023-09-01T03:29:38.839Z,2.00
2023-09-01T03:32:06.538Z,2.30
2023-09-01T03:34:34.165Z,3.00
2023-09-01T03:37:02.949Z,2.40
2023-09-01T03:39:30.610Z,2.40
2023-09-01T03:41:58.275Z,2.00
2023-09-01T03:44:25.933Z,2.70
2023-09-01T03:46:53.601Z,2.80
2023-09-01T03:49:21.253Z,3.00
2023-09-01T03:51:48.814Z,2.00
2023-09-01T03:54:16.374Z,2.20
2023-09-01T03:56:43.929Z,1.40
2023-09-01T03:59:11.491Z,2.40
2023-09-01T04:01:39.090Z,2.10
2023-09-01T04:04:07.872Z,2.20
2023-09-01T04:06:35.598Z,2.10
2023-09-01T04:09:03.361Z,2.90
2023-09-01T04:11:31.029Z,2.50
2023-09-01T04:13:59.813Z,2.40
2023-09-01T04:16:27.525Z,2.30
2023-09-01T04:18:56.093Z,1.40
2023-09-01T04:21:24.154Z,2.60
2023-09-01T04:23:51.887Z,2.80
2023-09-01T04:26:19.552Z,3.50
2023-09-01T04:28:47.209Z,3.20
2023-09-01T04:31:26.015Z,3.30
2023-09-01T04:33:53.894Z,2.50
2023-09-01T04:36:27.497Z,2.80
2023-09-01T04:39:05.949Z,2.00
2023-09-01T04:41:33.737Z,1.80
2023-09-01T04:44:01.240Z,2.10
2023-09-01T04:46:28.891Z,2.30
2023-09-01T04:48:57.685Z,1.90
2023-09-01T04:51:25.341Z,2.70
2023-09-01T04:53:53.103Z,2.20
2023-09-01T04:56:20.759Z,1.40
2023-09-01T04:58:48.625Z,3.30
2023-09-01T05:01:17.154Z,2.60
2023-09-01T05:03:47.580Z,2.00
2023-09-01T05:06:15.600Z,2.20
2023-09-01T05:08:43.164Z,3.00
2023-09-01T05:11:10.829Z,2.60
2023-09-01T05:13:38.999Z,2.60
2023-09-01T05:16:08.710Z,2.70
2023-09-01T05:18:36.778Z,2.40
2023-09-01T05:28:07.044Z,4.10
2023-09-01T05:30:38.284Z,2.70
2023-09-01T05:33:05.950Z,2.30
2023-09-01T05:35:34.435Z,2.90
2023-09-01T05:38:03.123Z,3.00
2023-09-01T05:40:30.674Z,3.10
2023-09-01T05:42:58.345Z,2.90
2023-09-01T05:45:26.103Z,3.10
2023-09-01T05:47:54.048Z,3.70
2023-09-01T05:50:23.173Z,3.80
2023-09-01T05:52:50.658Z,3.40
2023-09-01T05:55:18.320Z,3.60
2023-09-01T05:57:46.156Z,2.70
2023-09-01T06:00:14.623Z,3.50
2023-09-01T06:02:42.736Z,3.30
2023-09-01T06:05:10.362Z,3.30
2023-09-01T06:07:40.461Z,3.20
2023-09-01T06:10:09.796Z,2.60
2023-09-01T06:12:37.764Z,3.70
2023-09-01T06:15:09.249Z,5.10
2023-09-01T06:17:46.506Z,3.30
2023-09-01T06:20:19.307Z,3.90
2023-09-01T06:22:48.373Z,3.10
2023-09-01T06:25:16.060Z,2.50
2023-09-01T06:27:43.820Z,3.10
2023-09-01T06:30:11.930Z,4.00
2023-09-01T06:32:39.549Z,2.70
2023-09-01T06:35:07.734Z,3.00
2023-09-01T06:37:35.377Z,2.70
2023-09-01T06:40:04.884Z,2.50
2023-09-01T06:42:32.351Z,2.90
2023-09-01T06:44:59.833Z,3.10
2023-09-01T06:47:27.386Z,2.90
2023-09-01T06:49:54.855Z,2.80
2023-09-01T06:52:22.743Z,2.60
2023-09-01T06:54:51.631Z,2.40
2023-09-01T06:57:19.212Z,3.20
2023-09-01T06:59:46.733Z,3.10
2023-09-01T07:02:14.409Z,3.20
2023-09-01T07:04:42.343Z,2.50
2023-09-01T07:07:09.985Z,3.60
2023-09-01T07:09:37.879Z,2.40
2023-09-01T07:12:05.755Z,3.40
2023-09-01T07:14:33.440Z,2.50
2023-09-01T07:17:01.170Z,3.00
2023-09-01T07:19:28.837Z,3.50
2023-09-01T07:21:56.490Z,2.60
2023-09-01T07:24:24.156Z,2.90
2023-09-01T07:26:51.760Z,3.50
2023-09-01T07:29:19.306Z,2.60
2023-09-01T07:31:47.093Z,3.40
2023-09-01T07:34:14.903Z,2.90
2023-09-01T07:36:42.564Z,3.20
2023-09-01T07:39:10.147Z,3.20
2023-09-01T07:41:37.717Z,3.40
2023-09-01T07:44:05.854Z,4.00
2023-09-01T07:46:34.953Z,3.90
2023-09-01T07:49:03.754Z,4.10
2023-09-01T07:51:31.541Z,3.20
2023-09-01T07:54:00.468Z,4.00
2023-09-01T07:56:28.245Z,4.00
2023-09-01T07:58:55.880Z,3.80
2023-09-01T08:01:23.538Z,3.40
2023-09-01T08:03:51.906Z,3.60
2023-09-01T08:06:21.729Z,2.70
2023-09-01T08:08:49.397Z,3.70
2023-09-01T08:11:16.991Z,3.10
2023-09-01T08:13:44.650Z,4.40
2023-09-01T08:16:13.192Z,3.30
2023-09-01T08:18:41.128Z,2.60
2023-09-01T08:21:10.197Z,3.70
2023-09-01T08:23:42.521Z,3.30
2023-09-01T08:26:11.693Z,3.00
2023-09-01T08:28:39.552Z,3.50
2023-09-01T08:31:07.713Z,3.30
2023-09-01T08:33:37.714Z,2.90
2023-09-01T08:36:06.505Z,3.20
2023-09-01T08:38:33.999Z,3.40
2023-09-01T08:41:02.947Z,3.10
2023-09-01T08:43:35.866Z,3.00
2023-09-01T08:48:37.961Z,3.10
2023-09-01T08:51:07.479Z,2.70
2023-09-01T08:53:36.216Z,2.10
2023-09-01T08:56:03.975Z,3.70
2023-09-01T08:58:31.634Z,2.50
2023-09-01T09:00:59.223Z,2.60
2023-09-01T09:03:27.056Z,3.00
2023-09-01T09:05:56.958Z,3.00
2023-09-01T09:08:25.352Z,2.70
2023-09-01T09:10:53.426Z,2.70
2023-09-01T09:16:13.825Z,2.40
2023-09-01T09:18:43.094Z,2.40
2023-09-01T09:21:26.156Z,2.20
2023-09-01T09:24:03.498Z,2.40
2023-09-01T09:26:39.191Z,2.20
2023-09-01T09:29:15.974Z,2.10
2023-09-01T09:31:46.342Z,2.30
2023-09-01T09:34:24.061Z,2.20
2023-09-01T09:36:51.739Z,2.10
2023-09-01T09:39:32.013Z,2.00
2023-09-01T09:41:59.566Z,1.60
2023-09-01T09:44:32.794Z,2.00
2023-09-01T09:47:00.579Z,2.40
2023-09-01T09:49:28.300Z,2.10
2023-09-01T09:51:55.957Z,1.90
2023-09-01T09:54:24.632Z,1.90
2023-09-01T09:56:52.737Z,2.40
2023-09-01T09:59:32.893Z,1.70
2023-09-01T10:02:01.643Z,1.60
2023-09-01T10:04:31.638Z,1.20
2023-09-01T10:07:00.597Z,1.90
2023-09-01T10:09:28.471Z,1.50
2023-09-01T10:11:56.424Z,1.50
2023-09-01T10:14:24.815Z,2.20
2023-09-01T10:16:52.489Z,1.40
2023-09-01T10:19:20.595Z,1.90
2023-09-01T10:21:48.190Z,1.50
2023-09-01T10:24:17.299Z,2.10
2023-09-01T10:26:44.916Z,1.60
2023-09-01T10:29:15.695Z,1.90
2023-09-01T10:31:44.640Z,2.20
2023-09-01T10:34:15.995Z,1.80
2023-09-01T10:36:44.898Z,1.50
2023-09-01T10:39:24.775Z,1.80
2023-09-01T10:41:59.700Z,1.50
2023-09-01T10:44:44.023Z,1.50
2023-09-01T10:47:44.624Z,1.70
2023-09-01T10:50:13.701Z,2.40
2023-09-01T10:52:43.822Z,1.90
2023-09-01T10:55:11.513Z,1.60
2023-09-01T10:57:48.221Z,1.60
2023-09-01T11:00:35.395Z,1.70
2023-09-01T11:03:31.371Z,1.10
2023-09-01T11:05:59.739Z,1.40
2023-09-01T11:08:27.637Z,2.30
2023-09-01T11:10:58.007Z,1.40
2023-09-01T11:13:26.702Z,1.90
2023-09-01T11:15:54.727Z,1.80
2023-09-01T11:18:24.104Z,1.40
2023-09-01T11:20:55.648Z,2.20
2023-09-01T11:23:24.718Z,1.70
2023-09-01T11:25:57.550Z,1.60
2023-09-01T11:28:26.345Z,1.70
2023-09-01T11:30:54.194Z,1.60
2023-09-01T11:33:23.378Z,1.30
2023-09-01T11:36:12.301Z,1.80
2023-09-01T11:38:40.868Z,1.40
2023-09-01T11:41:10.956Z,1.10
2023-09-01T11:43:38.766Z,1.30
2023-09-01T11:46:07.731Z,1.60
2023-09-01T11:48:41.246Z,1.40
2023-09-01T11:51:12.327Z,1.60
2023-09-01T11:53:45.330Z,1.60
2023-09-01T11:56:23.712Z,1.80
2023-09-01T11:58:54.343Z,1.40
2023-09-01T12:01:24.764Z,1.50
2023-09-01T12:03:53.656Z,1.20
2023-09-01T12:06:28.055Z,1.60
2023-09-01T12:09:10.346Z,1.60
2023-09-01T12:12:08.816Z,0.90
2023-09-01T12:14:36.999Z,1.50
2023-09-01T12:17:24.012Z,2.00
2023-09-01T12:19:55.763Z,1.00
2023-09-01T12:22:24.488Z,1.40
2023-09-01T12:24:56.214Z,1.00
2023-09-01T12:27:23.820Z,0.60
2023-09-01T12:29:51.367Z,0.80
2023-09-01T12:32:19.192Z,1.00
2023-09-01T12:34:48.748Z,1.00
2023-09-01T12:37:17.995Z,1.00
2023-09-01T12:40:12.353Z,1.20
2023-09-01T12:42:42.369Z,0.80
2023-09-01T12:45:12.016Z,1.50
2023-09-01T12:47:43.677Z,1.00
2023-09-01T12:50:11.619Z,0.50
2023-09-01T12:52:40.632Z,0.60
2023-09-01T12:55:11.183Z,0.50
2023-09-01T12:57:39.163Z,1.10
2023-09-01T13:00:08.278Z,0.90
2023-09-01T13:02:37.485Z,0.80
2023-09-01T13:05:08.393Z,0.90
2023-09-01T13:07:37.490Z,1.10
2023-09-01T13:10:08.466Z,0.80
2023-09-01T13:12:37.118Z,0.80
2023-09-01T13:15:05.498Z,0.60
2023-09-01T13:17:33.567Z,0.70
2023-09-01T13:20:01.537Z,1.60
2023-09-01T13:22:29.195Z,1.50
2023-09-01T13:24:57.102Z,1.30
2023-09-01T13:27:25.887Z,1.30
2023-09-01T13:29:53.486Z,1.00
2023-09-01T13:32:21.047Z,0.90
2023-09-01T13:34:49.046Z,1.00
2023-09-01T13:37:17.482Z,1.00
2023-09-01T13:39:45.308Z,1.10
2023-09-01T13:42:12.942Z,0.90
2023-09-01T13:44:40.544Z,0.80
2023-09-01T13:47:08.658Z,1.50
2023-09-01T13:49:36.235Z,1.50
2023-09-01T13:52:05.116Z,1.70
2023-09-01T13:54:33.189Z,1.00
2023-09-01T13:57:00.920Z,0.70
2023-09-01T13:59:28.842Z,0.70
2023-09-01T14:01:56.432Z,1.00
2023-09-01T14:04:24.298Z,1.10
2023-09-01T14:06:53.341Z,1.10
2023-09-01T14:09:20.943Z,1.00
2023-09-01T14:11:48.525Z,0.50
2023-09-01T14:14:16.301Z,1.00
2023-09-01T14:16:43.850Z,1.40
2023-09-01T14:19:11.536Z,1.30
2023-09-01T14:21:39.508Z,0.80
2023-09-01T14:24:08.617Z,1.40
2023-09-01T14:26:36.398Z,1.30
2023-09-01T14:29:05.023Z,1.00
2023-09-01T14:31:32.561Z,1.50
2023-09-01T14:34:01.056Z,1.00
2023-09-01T14:36:28.903Z,0.80
2023-09-01T14:38:58.013Z,1.50
2023-09-01T14:41:26.407Z,0.70
2023-09-01T14:43:56.059Z,0.60
2023-09-01T14:46:23.801Z,1.60
2023-09-01T14:48:51.585Z,0.90
2023-09-01T14:51:19.387Z,1.30
2023-09-01T14:53:49.053Z,0.40
2023-09-01T14:56:21.508Z,1.20
2023-09-01T14:58:51.892Z,1.40
2023-09-01T15:01:20.917Z,1.10
2023-09-01T15:03:48.682Z,1.50
2023-09-01T15:06:16.719Z,1.10
2023-09-01T15:08:45.550Z,0.60
2023-09-01T15:11:13.098Z,1.20
2023-09-01T15:13:40.850Z,1.40
2023-09-01T15:16:08.592Z,0.90
2023-09-01T15:18:36.315Z,1.10
2023-09-01T15:21:08.693Z,1.90
2023-09-01T15:23:36.776Z,0.80
2023-09-01T15:26:04.577Z,0.90
2023-09-01T15:28:32.401Z,1.30
2023-09-01T15:30:59.897Z,2.10
2023-09-01T15:33:28.471Z,1.30
2023-09-01T15:35:56.878Z,1.40
2023-09-01T15:38:25.961Z,1.30
2023-09-01T15:40:53.633Z,1.20
2023-09-01T15:43:21.238Z,1.80
2023-09-01T15:45:48.821Z,2.40
2023-09-01T15:48:16.416Z,2.10
2023-09-01T15:50:46.982Z,3.30
2023-09-01T15:53:16.007Z,3.80
2023-09-01T15:55:44.154Z,4.00
2023-09-01T15:58:11.812Z,4.40
2023-09-01T16:00:39.680Z,3.80
2023-09-01T16:03:09.111Z,4.70
2023-09-01T16:05:40.842Z,3.10
2023-09-01T16:08:08.516Z,1.70
2023-09-01T16:10:36.163Z,1.70
2023-09-01T16:13:04.132Z,1.50
2023-09-01T16:15:32.234Z,1.60
2023-09-01T16:18:00.005Z,1.00
2023-09-01T16:20:29.165Z,2.00
2023-09-01T16:22:56.825Z,1.40
2023-09-01T16:25:24.437Z,2.00
2023-09-01T16:27:52.003Z,1.20
2023-09-01T16:30:20.330Z,1.40
2023-09-01T16:32:48.015Z,1.30
2023-09-01T16:37:50.689Z,0.60
2023-09-01T16:40:18.681Z,1.00
2023-09-01T16:42:46.421Z,1.20
2023-09-01T16:45:16.847Z,0.90
2023-09-01T16:47:45.670Z,1.40
2023-09-01T16:50:13.700Z,4.10
2023-09-01T16:52:41.363Z,4.70
2023-09-01T16:55:09.548Z,3.50
2023-09-01T16:57:37.303Z,2.90
2023-09-01T17:00:06.230Z,2.90
2023-09-01T17:02:34.990Z,3.00
2023-09-01T17:05:04.862Z,2.70
2023-09-01T17:07:32.557Z,2.80
2023-09-01T17:10:08.085Z,3.40
2023-09-01T17:12:35.721Z,3.90
2023-09-01T17:15:03.540Z,3.40
2023-09-01T17:17:31.236Z,3.90
2023-09-01T17:19:58.846Z,3.80
2023-09-01T17:22:26.404Z,3.10
2023-09-01T17:24:54.067Z,3.90
2023-09-01T17:27:21.579Z,3.50
2023-09-01T17:29:49.143Z,6.40
2023-09-01T17:32:16.743Z,6.70
2023-09-01T17:34:44.507Z,9.40
2023-09-01T17:37:12.170Z,11.40
2023-09-01T17:39:40.138Z,20.80
2023-09-01T17:42:07.796Z,41.80
2023-09-01T17:44:35.411Z,49.50
2023-09-01T17:47:04.141Z,31.50
2023-09-01T17:49:31.979Z,25.20
2023-09-01T17:51:59.770Z,17.80
2023-09-01T17:54:27.533Z,11.70
2023-09-01T17:56:57.306Z,9.50
2023-09-01T17:59:25.319Z,9.10
2023-09-01T18:01:59.978Z,5.50
2023-09-01T18:04:28.593Z,7.80
2023-09-01T18:06:57.443Z,5.00
2023-09-01T18:09:28.083Z,7.00
2023-09-01T18:11:55.662Z,4.70
2023-09-01T18:14:23.270Z,5.50
2023-09-01T18:16:51.048Z,6.20
2023-09-01T18:19:21.184Z,6.90
2023-09-01T18:21:49.243Z,5.10
2023-09-01T18:24:19.543Z,6.20
2023-09-01T18:26:47.048Z,3.80
2023-09-01T18:29:21.689Z,4.30
2023-09-01T18:31:50.463Z,3.10
2023-09-01T18:34:21.884Z,3.40
2023-09-01T18:36:49.726Z,3.20
2023-09-01T18:39:17.383Z,4.30
2023-09-01T18:41:45.054Z,3.10
2023-09-01T18:44:14.144Z,4.20
2023-09-01T18:46:41.870Z,6.50
2023-09-01T18:49:12.041Z,4.30
2023-09-01T18:51:42.935Z,3.60
2023-09-01T18:54:36.549Z,4.50
2023-09-01T18:57:04.941Z,5.40
2023-09-01T18:59:32.691Z,5.40
2023-09-01T19:02:00.494Z,4.50
2023-09-01T19:04:28.116Z,5.20
2023-09-01T19:06:55.728Z,6.00
2023-09-01T19:09:23.986Z,5.00
2023-09-01T19:11:51.568Z,3.80
2023-09-01T19:14:21.141Z,4.90
2023-09-01T19:16:50.006Z,5.20
2023-09-01T19:19:19.009Z,4.20
2023-09-01T19:21:46.664Z,4.70
2023-09-01T19:24:14.627Z,5.20
2023-09-01T19:26:42.290Z,4.70
2023-09-01T19:29:13.975Z,5.30
2023-09-01T19:31:46.105Z,4.50
2023-09-01T19:34:14.706Z,4.50
2023-09-01T19:36:42.404Z,4.20
2023-09-01T19:39:11.142Z,4.30
2023-09-01T19:41:40.152Z,4.50
2023-09-01T19:44:11.621Z,4.80
2023-09-01T19:46:40.330Z,4.10
2023-09-01T19:49:12.753Z,3.60
2023-09-01T19:51:43.706Z,5.50
2023-09-01T19:54:14.824Z,5.00
2023-09-01T19:56:42.509Z,4.30
2023-09-01T19:59:10.203Z,3.90
2023-09-01T20:01:38.665Z,4.00
2023-09-01T20:04:07.135Z,3.90
2023-09-01T20:06:34.664Z,4.50
2023-09-01T20:09:11.432Z,3.00
2023-09-01T20:11:38.995Z,3.40
2023-09-01T20:14:08.446Z,3.30
2023-09-01T20:16:36.618Z,4.60
2023-09-01T20:19:16.543Z,2.10
2023-09-01T20:21:44.076Z,2.80
2023-09-01T20:24:11.734Z,2.30
2023-09-01T20:26:39.292Z,2.50
2023-09-01T20:29:06.959Z,3.50
2023-09-01T20:31:37.533Z,2.40
2023-09-01T20:34:08.224Z,4.00
2023-09-01T20:36:35.879Z,2.60
2023-09-01T20:39:04.152Z,3.10
2023-09-01T20:41:31.812Z,3.30
2023-09-01T20:43:59.487Z,3.00
2023-09-01T20:46:27.775Z,2.70
2023-09-01T20:48:55.513Z,2.80
2023-09-01T20:51:23.286Z,3.40
2023-09-01T20:53:50.873Z,2.00
2023-09-01T20:56:18.499Z,2.90
2023-09-01T20:58:46.671Z,2.30
2023-09-01T21:01:15.506Z,1.90
2023-09-01T21:03:43.222Z,2.10
2023-09-01T21:06:11.390Z,2.40
2023-09-01T21:08:39.472Z,1.90
2023-09-01T21:11:07.126Z,1.10
2023-09-01T21:13:35.710Z,2.30
2023-09-01T21:16:03.795Z,1.70
2023-09-01T21:18:31.542Z,1.30
2023-09-01T21:20:59.100Z,0.90
2023-09-01T21:23:27.069Z,1.60
2023-09-01T21:25:54.518Z,1.30
2023-09-01T21:28:22.087Z,1.20
2023-09-01T21:30:51.790Z,1.40
2023-09-01T21:33:20.500Z,1.20
2023-09-01T21:35:48.563Z,1.10
2023-09-01T21:38:16.114Z,1.00
2023-09-01T21:40:44.829Z,1.20
2023-09-01T21:43:12.557Z,0.80
2023-09-01T21:45:40.254Z,1.10
2023-09-01T21:48:08.006Z,1.10
2023-09-01T21:50:35.846Z,1.40
2023-09-01T21:53:04.024Z,0.80
2023-09-01T21:55:31.675Z,1.40
2023-09-01T21:57:59.439Z,0.80
2023-09-01T22:00:27.406Z,0.80
2023-09-01T22:02:54.985Z,1.60
2023-09-01T22:05:22.732Z,0.80
2023-09-01T22:07:50.389Z,1.60
2023-09-01T22:10:18.151Z,1.10
2023-09-01T22:12:46.128Z,0.80
2023-09-01T22:15:13.986Z,0.90
2023-09-01T22:17:41.605Z,1.00
2023-09-01T22:20:11.452Z,1.30
2023-09-01T22:22:39.014Z,1.10
2023-09-01T22:25:07.300Z,1.70
2023-09-01T22:27:34.847Z,2.30
2023-09-01T22:30:02.409Z,1.50
2023-09-01T22:32:30.098Z,0.90
2023-09-01T22:34:57.762Z,1.20
2023-09-01T22:37:25.495Z,1.50
2023-09-01T22:39:53.257Z,1.00
2023-09-01T22:42:20.812Z,0.70
2023-09-01T22:44:48.370Z,1.30
2023-09-01T22:47:15.930Z,1.60
2023-09-01T22:49:44.112Z,1.90
2023-09-01T22:52:11.766Z,2.60
2023-09-01T22:54:39.358Z,2.10
2023-09-01T22:57:06.985Z,1.70
2023-09-01T22:59:34.542Z,2.20
2023-09-01T23:02:02.100Z,3.20
2023-09-01T23:04:29.655Z,2.70
2023-09-01T23:06:57.218Z,2.60
2023-09-01T23:09:24.773Z,2.90
2023-09-01T23:11:52.541Z,2.20
2023-09-01T23:14:21.327Z,2.00
2023-09-01T23:16:48.911Z,2.30
2023-09-01T23:19:17.178Z,1.60
2023-09-01T23:21:44.860Z,1.70
2023-09-01T23:24:14.019Z,2.10
2023-09-01T23:26:45.261Z,1.50
2023-09-01T23:29:15.515Z,2.00
2023-09-01T23:31:44.768Z,3.10
2023-09-01T23:34:12.549Z,2.90
2023-09-01T23:36:40.103Z,2.10
2023-09-01T23:39:07.969Z,2.30
2023-09-01T23:41:35.436Z,1.60
2023-09-01T23:44:02.937Z,1.80
2023-09-01T23:46:30.456Z,3.20
2023-09-01T23:48:58.214Z,1.40
2023-09-01T23:51:25.708Z,2.00
2023-09-01T23:53:53.176Z,3.30
2023-09-01T23:56:20.673Z,2.70
2023-09-01T23:58:48.335Z,3.20
